Time;durP1;ratioP1;P1;durP2;ratioP2;P2;SDS_P1;SDS_P2;PMS_P1;PMS_P2;Temp;Humidity;BMP_temperature;BMP_pressure;BME280_temperature;BME280_humidity;BME280_pressure;Samples;Min_cycle;Max_cycle;Signal;HPM_P1;HPM_P2
2023/08/27 00:01:09;;;;;;;5.57;4.20;;;;;;;-148.88;100.00;-17125.47;4975986;28;20030;-73
2023/08/27 00:03:35;;;;;;;5.60;4.43;;;;;;;-148.88;100.00;-17125.47;4975822;28;20465;-72
2023/08/27 00:06:00;;;;;;;7.68;4.80;;;;;;;-148.88;100.00;-17125.47;4976056;28;20026;-73
2023/08/27 00:08:25;;;;;;;8.95;4.70;;;;;;;-148.88;100.00;-17125.47;4975655;28;20027;-72
2023/08/27 00:10:57;;;;;;;6.82;4.32;;;;;;;-148.88;100.00;-17125.47;4975658;28;20077;-73
2023/08/27 00:13:22;;;;;;;4.50;3.90;;;;;;;-148.88;100.00;-17125.47;4975962;28;20033;-72
2023/08/27 00:15:50;;;;;;;4.65;4.05;;;;;;;-148.88;100.00;-17125.47;4975690;28;20026;-72
2023/08/27 00:18:15;;;;;;;4.65;4.20;;;;;;;-148.88;100.00;-17125.47;4974434;28;20478;-73
2023/08/27 00:20:41;;;;;;;6.10;3.88;;;;;;;-148.88;100.00;-17125.47;4975486;28;20069;-73
2023/08/27 00:23:08;;;;;;;6.32;4.22;;;;;;;-148.88;100.00;-17125.47;5007565;23;20084;-87
2023/08/27 00:25:34;;;;;;;7.82;4.35;;;;;;;-148.88;100.00;-17125.47;4994468;28;20034;-86
2023/08/27 00:28:00;;;;;;;4.72;4.10;;;;;;;-148.88;100.00;-17125.47;4995479;28;20084;-87
2023/08/27 00:30:25;;;;;;;6.90;4.57;;;;;;;-148.88;100.00;-17125.47;4994772;28;20022;-86
2023/08/27 00:32:54;;;;;;;6.35;4.60;;;;;;;-148.88;100.00;-17125.47;4994561;28;20018;-87
2023/08/27 00:35:20;;;;;;;5.82;3.75;;;;;;;-148.88;100.00;-17125.47;4995856;28;20560;-86
2023/08/27 00:37:45;;;;;;;5.43;4.13;;;;;;;-148.88;100.00;-17125.47;5000983;22;20050;-83
2023/08/27 00:40:10;;;;;;;5.85;4.70;;;;;;;-148.88;100.00;-17125.47;4982450;28;20409;-85
2023/08/27 00:42:36;;;;;;;5.13;3.95;;;;;;;-148.88;100.00;-17125.47;4983601;28;20113;-84
2023/08/27 00:45:03;;;;;;;6.85;4.50;;;;;;;-148.88;100.00;-17125.47;4980929;28;20019;-84
2023/08/27 00:47:30;;;;;;;6.10;4.28;;;;;;;-148.88;100.00;-17125.47;4982573;28;20051;-85
2023/08/27 00:49:56;;;;;;;5.47;4.20;;;;;;;-148.88;100.00;-17125.47;4982386;28;20023;-85
2023/08/27 00:52:22;;;;;;;6.05;4.10;;;;;;;-148.88;100.00;-17125.47;4982427;28;20389;-84
2023/08/27 00:54:48;;;;;;;5.22;3.88;;;;;;;-148.88;100.00;-17125.47;4982801;28;20106;-85
2023/08/27 00:57:14;;;;;;;7.00;3.92;;;;;;;-148.88;100.00;-17125.47;4982585;28;20549;-85
2023/08/27 00:59:41;;;;;;;5.82;4.35;;;;;;;-148.88;100.00;-17125.47;4980999;28;20025;-84
2023/08/27 01:02:06;;;;;;;6.40;5.35;;;;;;;-148.88;100.00;-17125.47;4977062;28;20066;-84
2023/08/27 01:04:31;;;;;;;6.20;5.60;;;;;;;-148.88;100.00;-17125.47;4979184;28;20026;-84
2023/08/27 01:07:05;;;;;;;7.05;5.60;;;;;;;-148.88;100.00;-17125.47;4978767;28;20474;-84
2023/08/27 01:09:36;;;;;;;7.85;6.30;;;;;;;-148.88;100.00;-17125.47;4978940;28;20026;-85
2023/08/27 01:12:13;;;;;;;6.10;5.50;;;;;;;-148.88;100.00;-17125.47;4980987;28;20030;-85
2023/08/27 01:14:43;;;;;;;9.05;6.40;;;;;;;-148.88;100.00;-17125.47;4980182;28;20477;-83
2023/08/27 01:17:13;;;;;;;7.75;6.88;;;;;;;-148.88;100.00;-17125.47;4979482;28;20034;-84
2023/08/27 01:19:39;;;;;;;8.05;6.90;;;;;;;-148.88;100.00;-17125.47;4982070;28;20034;-85
2023/08/27 01:22:04;;;;;;;8.07;7.28;;;;;;;-148.88;100.00;-17125.47;4982483;28;20022;-85
2023/08/27 01:24:30;;;;;;;7.97;7.03;;;;;;;-148.88;100.00;-17125.47;4981300;28;20033;-84
2023/08/27 01:27:04;;;;;;;9.13;8.20;;;;;;;-148.88;100.00;-17125.47;4981357;28;20075;-84
2023/08/27 01:29:48;;;;;;;9.75;8.07;;;;;;;-148.88;100.00;-17125.47;4980493;28;20034;-85
2023/08/27 01:32:32;;;;;;;8.82;7.65;;;;;;;-148.88;100.00;-17125.47;4981859;28;20019;-85
2023/08/27 01:35:01;;;;;;;8.57;7.68;;;;;;;-148.88;100.00;-17125.47;4980943;28;20126;-84
2023/08/27 01:37:26;;;;;;;7.50;6.75;;;;;;;-148.88;100.00;-17125.47;4983387;28;20035;-82
2023/08/27 01:39:58;;;;;;;7.57;6.88;;;;;;;-148.88;100.00;-17125.47;4992029;28;20105;-82
2023/08/27 01:42:23;;;;;;;7.70;6.90;;;;;;;-148.88;100.00;-17125.47;4992293;28;20022;-82
2023/08/27 01:44:48;;;;;;;7.90;7.07;;;;;;;-148.88;100.00;-17125.47;4992922;28;20039;-84
2023/08/27 01:47:14;;;;;;;8.82;6.43;;;;;;;-148.88;100.00;-17125.47;4987518;28;20094;-83
2023/08/27 01:49:39;;;;;;;6.75;6.05;;;;;;;-148.88;100.00;-17125.47;4982402;28;20022;-85
2023/08/27 01:52:05;;;;;;;6.97;6.28;;;;;;;-148.88;100.00;-17125.47;4983426;28;20142;-85
2023/08/27 01:54:34;;;;;;;7.00;6.30;;;;;;;-148.88;100.00;-17125.47;4981667;28;20158;-84
2023/08/27 01:56:59;;;;;;;7.28;6.50;;;;;;;-148.88;100.00;-17125.47;4983178;28;20037;-85
2023/08/27 01:59:24;;;;;;;7.40;6.40;;;;;;;-148.88;100.00;-17125.47;4981566;28;20434;-85
2023/08/27 02:01:50;;;;;;;7.72;6.55;;;;;;;-148.88;100.00;-17125.47;4982075;28;20343;-85
2023/08/27 02:04:15;;;;;;;8.73;6.93;;;;;;;-148.88;100.00;-17125.47;4981175;28;20106;-85
2023/08/27 02:06:40;;;;;;;7.25;6.53;;;;;;;-148.88;100.00;-17125.47;4982131;28;20049;-83
2023/08/27 02:09:06;;;;;;;7.38;6.43;;;;;;;-148.88;100.00;-17125.47;4980541;28;20023;-84
2023/08/27 02:11:31;;;;;;;8.25;6.35;;;;;;;-148.88;100.00;-17125.47;4982023;28;20102;-85
2023/08/27 02:13:57;;;;;;;7.25;6.45;;;;;;;-148.88;100.00;-17125.47;4981865;28;20113;-86
2023/08/27 02:16:23;;;;;;;8.05;6.40;;;;;;;-148.88;100.00;-17125.47;4977648;28;20041;-82
2023/08/27 02:18:48;;;;;;;7.50;6.05;;;;;;;-148.88;100.00;-17125.47;4977511;28;20512;-84
2023/08/27 02:21:14;;;;;;;7.20;6.35;;;;;;;-148.88;100.00;-17125.47;4978258;28;20078;-84
2023/08/27 02:23:39;;;;;;;7.70;6.85;;;;;;;-148.88;100.00;-17125.47;4978982;28;20034;-83
2023/08/27 02:26:04;;;;;;;8.43;7.07;;;;;;;-148.88;100.00;-17125.47;4979313;28;20027;-84
2023/08/27 02:28:29;;;;;;;7.75;7.05;;;;;;;-148.88;100.00;-17125.47;4979627;28;20072;-84
2023/08/27 02:30:55;;;;;;;9.70;7.63;;;;;;;-148.88;100.00;-17125.47;4979528;28;20042;-84
2023/08/27 02:33:22;;;;;;;7.70;6.90;;;;;;;-148.88;100.00;-17125.47;4981323;28;20026;-84
2023/08/27 02:35:47;;;;;;;7.50;6.57;;;;;;;-148.88;100.00;-17125.47;4980851;28;20034;-85
2023/08/27 02:38:13;;;;;;;8.52;6.82;;;;;;;-148.88;100.00;-17125.47;4981227;28;20034;-85
2023/08/27 02:40:39;;;;;;;7.93;6.53;;;;;;;-148.88;100.00;-17125.47;4979712;28;20046;-84
2023/08/27 02:43:05;;;;;;;8.05;6.47;;;;;;;-148.88;100.00;-17125.47;4982917;28;20027;-85
2023/08/27 02:45:30;;;;;;;6.55;5.72;;;;;;;-148.88;100.00;-17125.47;4981543;28;20523;-85
2023/08/27 02:47:55;;;;;;;7.35;6.20;;;;;;;-148.88;100.00;-17125.47;4982739;28;20094;-83
2023/08/27 02:50:21;;;;;;;6.47;5.85;;;;;;;-148.88;100.00;-17125.47;4984305;28;20074;-85
2023/08/27 02:52:47;;;;;;;7.13;6.40;;;;;;;-148.88;100.00;-17125.47;4983350;28;20042;-84
2023/08/27 02:55:12;;;;;;;6.72;5.45;;;;;;;-148.88;100.00;-17125.47;4980224;28;20019;-84
2023/08/27 02:57:37;;;;;;;6.57;5.53;;;;;;;-148.88;100.00;-17125.47;4980627;28;20416;-82
2023/08/27 03:00:04;;;;;;;7.85;5.72;;;;;;;-148.88;100.00;-17125.47;4980959;28;20042;-84
2023/08/27 03:02:29;;;;;;;6.28;5.18;;;;;;;-148.88;100.00;-17125.47;4982585;28;20033;-83
2023/08/27 03:04:56;;;;;;;7.25;5.78;;;;;;;-148.88;100.00;-17125.47;4982105;28;20110;-83
2023/08/27 03:07:22;;;;;;;9.75;5.85;;;;;;;-148.88;100.00;-17125.47;4982353;28;20031;-84
2023/08/27 03:09:47;;;;;;;6.75;5.70;;;;;;;-148.88;100.00;-17125.47;4983468;28;20022;-84
2023/08/27 03:12:13;;;;;;;8.18;5.60;;;;;;;-148.88;100.00;-17125.47;4982934;28;20019;-85
2023/08/27 03:14:38;;;;;;;6.80;5.00;;;;;;;-148.88;100.00;-17125.47;4984706;28;20031;-85
2023/08/27 03:17:03;;;;;;;6.57;5.60;;;;;;;-148.88;100.00;-17125.47;4982704;28;20023;-84
2023/08/27 03:19:29;;;;;;;7.18;5.10;;;;;;;-148.88;100.00;-17125.47;4982501;28;20081;-84
2023/08/27 03:21:54;;;;;;;6.43;5.57;;;;;;;-148.88;100.00;-17125.47;4982101;28;20050;-84
2023/08/27 03:24:19;;;;;;;6.97;6.03;;;;;;;-148.88;100.00;-17125.47;4981667;28;20030;-83
2023/08/27 03:26:45;;;;;;;8.95;5.75;;;;;;;-148.88;100.00;-17125.47;4982218;28;20030;-84
2023/08/27 03:29:10;;;;;;;7.70;5.60;;;;;;;-148.88;100.00;-17125.47;4984320;28;20066;-85
2023/08/27 03:31:36;;;;;;;7.15;5.18;;;;;;;-148.88;100.00;-17125.47;4980642;28;20027;-82
2023/08/27 03:34:01;;;;;;;8.05;6.05;;;;;;;-148.88;100.00;-17125.47;4978378;28;20019;-83
2023/08/27 03:36:26;;;;;;;7.13;5.85;;;;;;;-148.88;100.00;-17125.47;4980333;28;20394;-85
2023/08/27 03:38:52;;;;;;;8.90;6.30;;;;;;;-148.88;100.00;-17125.47;4979939;28;20027;-83
2023/08/27 03:41:17;;;;;;;8.95;6.82;;;;;;;-148.88;100.00;-17125.47;4980395;28;20089;-85
2023/08/27 03:43:43;;;;;;;7.50;6.53;;;;;;;-148.88;100.00;-17125.47;4981427;28;20094;-84
2023/08/27 03:46:09;;;;;;;9.43;6.60;;;;;;;-148.88;100.00;-17125.47;4981348;28;20401;-85
2023/08/27 03:48:34;;;;;;;7.82;6.75;;;;;;;-148.88;100.00;-17125.47;4981280;28;20431;-85
2023/08/27 03:51:00;;;;;;;10.40;6.40;;;;;;;-148.88;100.00;-17125.47;4981516;28;20050;-85
2023/08/27 03:53:25;;;;;;;7.72;6.05;;;;;;;-148.88;100.00;-17125.47;4982438;28;20553;-83
2023/08/27 03:55:50;;;;;;;10.40;6.38;;;;;;;-148.88;100.00;-17125.47;4981557;28;20031;-84
2023/08/27 03:58:16;;;;;;;8.88;6.15;;;;;;;-148.88;100.00;-17125.47;4980812;28;20030;-84
2023/08/27 04:00:41;;;;;;;6.70;5.82;;;;;;;-148.88;100.00;-17125.47;4981312;28;20069;-84
2023/08/27 04:03:08;;;;;;;7.95;5.90;;;;;;;-148.88;100.00;-17125.47;4982381;28;20455;-84
2023/08/27 04:05:34;;;;;;;6.75;5.80;;;;;;;-148.88;100.00;-17125.47;4983485;28;20065;-86
2023/08/27 04:08:00;;;;;;;6.68;5.93;;;;;;;-148.88;100.00;-17125.47;4980942;28;20030;-84
2023/08/27 04:10:25;;;;;;;8.75;5.55;;;;;;;-148.88;100.00;-17125.47;4977027;28;20027;-84
2023/08/27 04:12:51;;;;;;;6.95;5.80;;;;;;;-148.88;100.00;-17125.47;4980170;28;20418;-83
2023/08/27 04:15:17;;;;;;;6.45;5.55;;;;;;;-148.88;100.00;-17125.47;4979246;28;20026;-84
2023/08/27 04:17:43;;;;;;;6.38;5.53;;;;;;;-148.88;100.00;-17125.47;4979615;28;20038;-85
2023/08/27 04:20:10;;;;;;;6.97;5.43;;;;;;;-148.88;100.00;-17125.47;4980167;28;20026;-85
2023/08/27 04:22:35;;;;;;;7.05;5.60;;;;;;;-148.88;100.00;-17125.47;4981169;28;20026;-83
2023/08/27 04:25:01;;;;;;;7.05;5.43;;;;;;;-148.88;100.00;-17125.47;4982962;28;20022;-83
2023/08/27 04:27:27;;;;;;;11.57;5.70;;;;;;;-148.88;100.00;-17125.47;4983456;28;20031;-83
2023/08/27 04:29:53;;;;;;;8.77;6.07;;;;;;;-148.88;100.00;-17125.47;4979963;28;20110;-85
2023/08/27 04:32:19;;;;;;;7.13;5.90;;;;;;;-148.88;100.00;-17125.47;4981249;28;20054;-84
2023/08/27 04:34:44;;;;;;;8.43;5.75;;;;;;;-148.88;100.00;-17125.47;4979592;28;20105;-85
2023/08/27 04:37:10;;;;;;;6.88;5.47;;;;;;;-148.88;100.00;-17125.47;4979587;28;20588;-86
2023/08/27 04:39:35;;;;;;;5.97;5.38;;;;;;;-148.88;100.00;-17125.47;4979614;28;20035;-85
2023/08/27 04:42:00;;;;;;;7.00;5.47;;;;;;;-148.88;100.00;-17125.47;4978573;28;20138;-86
2023/08/27 04:44:26;;;;;;;6.10;5.15;;;;;;;-148.88;100.00;-17125.47;4981430;28;20026;-83
2023/08/27 04:46:53;;;;;;;7.97;5.93;;;;;;;-148.88;100.00;-17125.47;4984152;28;20029;-83
2023/08/27 04:49:18;;;;;;;6.75;5.93;;;;;;;-148.88;100.00;-17125.47;4978580;28;20054;-84
2023/08/27 04:51:44;;;;;;;7.93;5.78;;;;;;;-148.88;100.00;-17125.47;4978307;28;20018;-85
2023/08/27 04:54:09;;;;;;;7.03;6.30;;;;;;;-148.88;100.00;-17125.47;4980115;28;20023;-84
2023/08/27 04:56:35;;;;;;;8.30;5.82;;;;;;;-148.88;100.00;-17125.47;4980598;28;20081;-84
2023/08/27 04:59:00;;;;;;;8.18;6.28;;;;;;;-148.88;100.00;-17125.47;4980326;28;20022;-84
2023/08/27 05:01:25;;;;;;;7.07;6.25;;;;;;;-148.88;100.00;-17125.47;4979574;28;20117;-85
2023/08/27 05:03:51;;;;;;;7.53;6.28;;;;;;;-148.88;100.00;-17125.47;4979386;28;20054;-84
2023/08/27 05:06:16;;;;;;;10.57;6.63;;;;;;;-148.88;100.00;-17125.47;4980685;28;20038;-86
2023/08/27 05:08:42;;;;;;;9.65;5.75;;;;;;;-148.88;100.00;-17125.47;4978936;28;20075;-85
2023/08/27 05:11:07;;;;;;;6.43;5.55;;;;;;;-148.88;100.00;-17125.47;4980336;28;20040;-85
2023/08/27 05:13:33;;;;;;;7.32;5.63;;;;;;;-148.88;100.00;-17125.47;4978948;28;20023;-85
2023/08/27 05:15:58;;;;;;;6.60;5.78;;;;;;;-148.88;100.00;-17125.47;4979159;28;20029;-84
2023/08/27 05:18:26;;;;;;;7.30;5.88;;;;;;;-148.88;100.00;-17125.47;4979077;28;20438;-86
2023/08/27 05:20:51;;;;;;;7.40;5.57;;;;;;;-148.88;100.00;-17125.47;4981922;28;20134;-81
2023/08/27 05:23:19;;;;;;;7.10;5.90;;;;;;;-148.88;100.00;-17125.47;4981062;28;20167;-81
2023/08/27 05:25:44;;;;;;;8.50;5.60;;;;;;;-148.88;100.00;-17125.47;4982151;28;20030;-83
2023/08/27 05:28:10;;;;;;;6.43;5.30;;;;;;;-148.88;100.00;-17125.47;4982869;28;20030;-81
2023/08/27 05:30:36;;;;;;;6.78;5.57;;;;;;;-148.88;100.00;-17125.47;4985876;28;20023;-85
2023/08/27 05:33:02;;;;;;;7.22;5.38;;;;;;;-148.88;100.00;-17125.47;4984134;28;20023;-85
2023/08/27 05:35:27;;;;;;;8.20;5.65;;;;;;;-148.88;100.00;-17125.47;4982836;28;20026;-83
2023/08/27 05:37:53;;;;;;;6.50;5.60;;;;;;;-148.88;100.00;-17125.47;4981240;28;20035;-85
2023/08/27 05:40:18;;;;;;;7.55;5.72;;;;;;;-148.88;100.00;-17125.47;4981361;28;20031;-82
2023/08/27 05:42:44;;;;;;;6.47;5.68;;;;;;;-148.88;100.00;-17125.47;4980480;28;20054;-85
2023/08/27 05:45:09;;;;;;;6.20;5.03;;;;;;;-148.88;100.00;-17125.47;4981466;28;20023;-84
2023/08/27 05:47:35;;;;;;;6.25;5.60;;;;;;;-148.88;100.00;-17125.47;4981761;28;20031;-83
2023/08/27 05:50:00;;;;;;;5.82;5.03;;;;;;;-148.88;100.00;-17125.47;4980043;28;20026;-84
2023/08/27 05:52:26;;;;;;;9.20;5.20;;;;;;;-148.88;100.00;-17125.47;4979629;28;20113;-85
2023/08/27 05:54:51;;;;;;;6.45;5.03;;;;;;;-148.88;100.00;-17125.47;4979893;28;20033;-85
2023/08/27 05:57:17;;;;;;;6.25;4.78;;;;;;;-148.88;100.00;-17125.47;4981475;28;20025;-85
2023/08/27 05:59:42;;;;;;;6.75;5.55;;;;;;;-148.88;100.00;-17125.47;4980200;28;20042;-84
2023/08/27 06:02:09;;;;;;;7.93;5.38;;;;;;;-148.88;100.00;-17125.47;4977132;28;20046;-84
2023/08/27 06:04:34;;;;;;;7.18;5.47;;;;;;;-148.88;100.00;-17125.47;4976178;28;20449;-84
2023/08/27 06:06:59;;;;;;;7.72;5.53;;;;;;;-148.88;100.00;-17125.47;4978269;28;20505;-83
2023/08/27 06:09:25;;;;;;;6.85;5.75;;;;;;;-148.88;100.00;-17125.47;4979343;28;20023;-84
2023/08/27 06:11:51;;;;;;;7.43;5.40;;;;;;;-148.88;100.00;-17125.47;4980417;28;20034;-83
2023/08/27 06:14:17;;;;;;;6.22;5.03;;;;;;;-148.88;100.00;-17125.47;4978875;28;20030;-85
2023/08/27 06:16:42;;;;;;;7.32;5.63;;;;;;;-148.88;100.00;-17125.47;4978572;28;20023;-85
2023/08/27 06:19:08;;;;;;;6.07;5.47;;;;;;;-148.88;100.00;-17125.47;4979587;28;20053;-85
2023/08/27 06:21:36;;;;;;;7.03;5.75;;;;;;;-148.88;100.00;-17125.47;4979480;28;20093;-84
2023/08/27 06:24:02;;;;;;;5.90;5.32;;;;;;;-148.88;100.00;-17125.47;4980219;28;20026;-85
2023/08/27 06:26:27;;;;;;;7.78;5.30;;;;;;;-148.88;100.00;-17125.47;4980318;28;20030;-83
2023/08/27 06:28:52;;;;;;;6.60;5.60;;;;;;;-148.88;100.00;-17125.47;4979125;28;20455;-84
2023/08/27 06:31:18;;;;;;;6.85;4.97;;;;;;;-148.88;100.00;-17125.47;4979310;28;20037;-84
2023/08/27 06:33:43;;;;;;;7.63;5.72;;;;;;;-148.88;100.00;-17125.47;4978763;28;20033;-84
2023/08/27 06:36:08;;;;;;;7.85;5.55;;;;;;;-148.88;100.00;-17125.47;4978394;28;20062;-85
2023/08/27 06:38:36;;;;;;;7.45;5.28;;;;;;;-148.88;100.00;-17125.47;4976526;28;20097;-83
2023/08/27 06:41:01;;;;;;;6.57;5.55;;;;;;;-148.88;100.00;-17125.47;4976182;28;20023;-84
2023/08/27 06:43:27;;;;;;;7.72;5.53;;;;;;;-148.88;100.00;-17125.47;4977152;28;20095;-84
2023/08/27 06:45:52;;;;;;;8.05;6.22;;;;;;;-148.88;100.00;-17125.47;4978213;28;20062;-82
2023/08/27 06:48:17;;;;;;;7.60;6.30;;;;;;;-148.88;100.00;-17125.47;4979326;28;20019;-85
2023/08/27 06:50:43;;;;;;;8.02;5.25;;;;;;;-148.88;100.00;-17125.47;4980971;28;20027;-85
2023/08/27 06:53:10;;;;;;;5.70;5.20;;;;;;;-148.88;100.00;-17125.47;4980852;28;20070;-85
2023/08/27 06:55:36;;;;;;;8.23;5.88;;;;;;;-148.88;100.00;-17125.47;4979603;28;20046;-84
2023/08/27 06:58:02;;;;;;;7.45;5.78;;;;;;;-148.88;100.00;-17125.47;4978661;28;20153;-85
2023/08/27 07:00:28;;;;;;;6.95;4.63;;;;;;;-148.88;100.00;-17125.47;4980278;28;20449;-84
2023/08/27 07:02:54;;;;;;;6.72;4.95;;;;;;;-148.88;100.00;-17125.47;4978049;28;20098;-85
2023/08/27 07:05:20;;;;;;;5.75;4.50;;;;;;;-148.88;100.00;-17125.47;4978982;28;20405;-83
2023/08/27 07:07:46;;;;;;;7.45;4.10;;;;;;;-148.88;100.00;-17125.47;4977681;28;20023;-83
2023/08/27 07:10:14;;;;;;;10.60;4.18;;;;;;;-148.88;100.00;-17125.47;4977801;28;20090;-83
2023/08/27 07:12:40;;;;;;;6.18;4.15;;;;;;;-148.88;100.00;-17125.47;4978766;28;20081;-84
2023/08/27 07:15:07;;;;;;;8.65;4.53;;;;;;;-148.88;100.00;-17125.47;4979568;28;20034;-83
2023/08/27 07:17:33;;;;;;;4.55;3.78;;;;;;;-148.88;100.00;-17125.47;4975197;28;20038;-84
2023/08/27 07:19:59;;;;;;;4.18;3.40;;;;;;;-148.88;100.00;-17125.47;4976135;28;20028;-83
2023/08/27 07:22:25;;;;;;;4.03;3.00;;;;;;;-148.88;100.00;-17125.47;4977352;28;20027;-84
2023/08/27 07:24:51;;;;;;;4.10;2.90;;;;;;;-148.88;100.00;-17125.47;4977494;28;20105;-82
2023/08/27 07:27:16;;;;;;;4.60;3.10;;;;;;;-148.88;100.00;-17125.47;4977978;28;20045;-82
2023/08/27 07:29:42;;;;;;;3.80;2.72;;;;;;;-148.88;100.00;-17125.47;4979350;28;20039;-84
2023/08/27 07:32:08;;;;;;;4.45;2.88;;;;;;;-148.88;100.00;-17125.47;4977454;28;20026;-84
2023/08/27 07:34:34;;;;;;;5.38;3.28;;;;;;;-148.88;100.00;-17125.47;4979021;28;20031;-84
2023/08/27 07:36:59;;;;;;;3.67;2.47;;;;;;;-148.88;100.00;-17125.47;4981043;28;20035;-85
2023/08/27 07:39:25;;;;;;;5.03;2.80;;;;;;;-148.88;100.00;-17125.47;4980652;28;20027;-85
2023/08/27 07:41:50;;;;;;;3.72;2.58;;;;;;;-148.88;100.00;-17125.47;4980289;28;20044;-82
2023/08/27 07:44:17;;;;;;;3.30;2.75;;;;;;;-148.88;100.00;-17125.47;4981687;28;20038;-83
2023/08/27 07:46:42;;;;;;;3.92;2.60;;;;;;;-148.88;100.00;-17125.47;4979755;28;20080;-82
2023/08/27 07:49:08;;;;;;;5.25;2.53;;;;;;;-148.88;100.00;-17125.47;4982292;28;20042;-83
2023/08/27 07:51:33;;;;;;;3.75;2.10;;;;;;;-148.88;100.00;-17125.47;4981736;28;20093;-85
2023/08/27 07:53:59;;;;;;;5.35;2.65;;;;;;;-148.88;100.00;-17125.47;4975874;28;20018;-83
2023/08/27 07:56:25;;;;;;;4.32;2.30;;;;;;;-148.88;100.00;-17125.47;4976904;28;20023;-83
2023/08/27 07:58:51;;;;;;;4.75;2.33;;;;;;;-148.88;100.00;-17125.47;4979134;28;20034;-82
2023/08/27 08:01:16;;;;;;;4.68;2.13;;;;;;;-148.88;100.00;-17125.47;4979819;28;20026;-83
2023/08/27 08:03:41;;;;;;;5.20;2.17;;;;;;;-148.88;100.00;-17125.47;4978846;28;20398;-83
2023/08/27 08:06:08;;;;;;;4.68;2.50;;;;;;;-148.88;100.00;-17125.47;4978863;28;20023;-83
2023/08/27 08:08:34;;;;;;;3.35;2.20;;;;;;;-148.88;100.00;-17125.47;4980136;28;20448;-83
2023/08/27 08:10:59;;;;;;;4.28;2.42;;;;;;;-148.88;100.00;-17125.47;4980261;28;20038;-83
2023/08/27 08:13:25;;;;;;;4.72;2.80;;;;;;;-148.88;100.00;-17125.47;4981125;28;20023;-83
2023/08/27 08:15:50;;;;;;;5.60;2.28;;;;;;;-148.88;100.00;-17125.47;4979568;28;20050;-84
2023/08/27 08:18:16;;;;;;;3.72;2.40;;;;;;;-148.88;100.00;-17125.47;4979026;28;20046;-85
2023/08/27 08:20:42;;;;;;;6.40;2.70;;;;;;;-148.88;100.00;-17125.47;4980109;28;20035;-82
2023/08/27 08:23:07;;;;;;;7.68;3.47;;;;;;;-148.88;100.00;-17125.47;4979631;28;20074;-81
2023/08/27 08:25:35;;;;;;;6.57;3.80;;;;;;;-148.88;100.00;-17125.47;4979888;28;20019;-84
2023/08/27 08:28:00;;;;;;;5.50;3.45;;;;;;;-148.88;100.00;-17125.47;4979094;28;20034;-82
2023/08/27 08:30:26;;;;;;;5.53;3.78;;;;;;;-148.88;100.00;-17125.47;4978832;28;20029;-80
2023/08/27 08:32:52;;;;;;;5.13;3.75;;;;;;;-148.88;100.00;-17125.47;4976497;28;20054;-81
2023/08/27 08:35:18;;;;;;;5.88;4.30;;;;;;;-148.88;100.00;-17125.47;4977329;28;20058;-84
2023/08/27 08:37:46;;;;;;;5.45;4.53;;;;;;;-148.88;100.00;-17125.47;4980090;28;20035;-83
2023/08/27 08:40:11;;;;;;;6.63;4.63;;;;;;;-148.88;100.00;-17125.47;4979087;28;20030;-83
2023/08/27 08:42:46;;;;;;;5.65;4.97;;;;;;;-148.88;100.00;-17125.47;4978519;28;20026;-84
2023/08/27 08:45:26;;;;;;;8.90;5.22;;;;;;;-148.88;100.00;-17125.47;4979347;28;20069;-82
2023/08/27 08:47:53;;;;;;;6.45;5.38;;;;;;;-148.88;100.00;-17125.47;4979419;28;20084;-83
2023/08/27 08:50:21;;;;;;;7.07;6.38;;;;;;;-148.88;100.00;-17125.47;4978143;28;20103;-84
2023/08/27 08:52:49;;;;;;;9.50;6.85;;;;;;;-148.88;100.00;-17125.47;4980722;28;20027;-84
2023/08/27 08:55:16;;;;;;;9.15;7.05;;;;;;;-148.88;100.00;-17125.47;4981456;28;20389;-85
2023/08/27 08:58:08;;;;;;;8.23;7.43;;;;;;;-148.88;100.00;-17125.47;4979656;28;20075;-84
2023/08/27 09:00:34;;;;;;;8.70;7.35;;;;;;;-148.88;100.00;-17125.47;4981689;28;20026;-85
2023/08/27 09:03:02;;;;;;;9.52;7.38;;;;;;;-148.88;100.00;-17125.47;4980552;28;20049;-84
2023/08/27 09:05:29;;;;;;;9.98;7.10;;;;;;;-148.88;100.00;-17125.47;4980635;28;20029;-82
2023/08/27 09:10:33;;;;;;;9.45;7.45;;;;;;;-148.88;100.00;-17125.47;4992734;28;20051;-73
2023/08/27 09:13:01;;;;;;;12.23;8.77;;;;;;;-148.88;100.00;-17125.47;4992183;28;20076;-72
2023/08/27 09:15:27;;;;;;;9.23;8.18;;;;;;;-148.88;100.00;-17125.47;4992035;28;20461;-72
2023/08/27 09:17:52;;;;;;;10.32;8.80;;;;;;;-148.88;100.00;-17125.47;4993288;28;20027;-73
2023/08/27 09:20:18;;;;;;;10.98;8.68;;;;;;;-148.88;100.00;-17125.47;4992760;28;20026;-72
2023/08/27 09:22:43;;;;;;;11.32;9.30;;;;;;;-148.88;100.00;-17125.47;4991759;28;20026;-72
2023/08/27 09:25:09;;;;;;;11.20;10.10;;;;;;;-148.88;100.00;-17125.47;4991924;28;20377;-72
2023/08/27 09:27:36;;;;;;;10.93;9.70;;;;;;;-148.88;100.00;-17125.47;4993193;28;20477;-72
2023/08/27 09:30:03;;;;;;;10.23;9.10;;;;;;;-148.88;100.00;-17125.47;4991826;28;20105;-72
2023/08/27 09:32:29;;;;;;;12.07;9.50;;;;;;;-148.88;100.00;-17125.47;4972503;28;20027;-72
2023/08/27 09:34:59;;;;;;;9.98;8.98;;;;;;;-148.88;100.00;-17125.47;4973513;28;20372;-72
2023/08/27 09:37:28;;;;;;;10.48;9.48;;;;;;;-148.88;100.00;-17125.47;4973440;28;20023;-72
2023/08/27 09:39:54;;;;;;;11.93;9.73;;;;;;;-148.88;100.00;-17125.47;4984247;28;20023;-72
2023/08/27 09:42:23;;;;;;;11.02;9.95;;;;;;;-148.88;100.00;-17125.47;4992791;28;20061;-71
2023/08/27 09:44:52;;;;;;;11.52;10.32;;;;;;;-148.88;100.00;-17125.47;4992009;28;20034;-72
2023/08/27 09:47:27;;;;;;;14.20;11.27;;;;;;;-148.88;100.00;-17125.47;4991771;28;20037;-73
2023/08/27 09:49:53;;;;;;;11.98;10.55;;;;;;;-148.88;100.00;-17125.47;4992835;28;20060;-73
2023/08/27 09:52:26;;;;;;;12.93;11.60;;;;;;;-148.88;100.00;-17125.47;4992799;28;20022;-72
2023/08/27 09:54:52;;;;;;;10.88;9.82;;;;;;;-148.88;100.00;-17125.47;4991916;28;20033;-73
2023/08/27 09:57:19;;;;;;;11.07;9.88;;;;;;;-148.88;100.00;-17125.47;4992359;28;20030;-73
2023/08/27 09:59:45;;;;;;;12.20;11.00;;;;;;;-148.88;100.00;-17125.47;4993071;28;20030;-73
2023/08/27 10:02:12;;;;;;;12.77;11.48;;;;;;;-148.88;100.00;-17125.47;4991852;28;20069;-73
2023/08/27 10:04:54;;;;;;;13.73;12.32;;;;;;;-148.88;100.00;-17125.47;4992886;28;20034;-73
2023/08/27 10:07:19;;;;;;;15.05;13.48;;;;;;;-148.88;100.00;-17125.47;4992887;28;20546;-72
2023/08/27 10:10:05;;;;;;;14.52;13.13;;;;;;;-148.88;100.00;-17125.47;4992891;28;20061;-72
2023/08/27 10:12:32;;;;;;;13.50;12.15;;;;;;;-148.88;100.00;-17125.47;4991719;28;20394;-72
2023/08/27 10:14:59;;;;;;;14.10;12.70;;;;;;;-148.88;100.00;-17125.47;4991585;28;20034;-73
2023/08/27 10:17:24;;;;;;;14.85;13.38;;;;;;;-148.88;100.00;-17125.47;4992960;28;20026;-72
2023/08/27 10:19:51;;;;;;;16.60;14.15;;;;;;;-148.88;100.00;-17125.47;4993273;28;20100;-72
2023/08/27 10:22:18;;;;;;;20.88;16.98;;;;;;;-148.88;100.00;-17125.47;4992621;28;20022;-72
2023/08/27 10:24:46;;;;;;;16.20;14.60;;;;;;;-148.88;100.00;-17125.47;4993043;28;20022;-73
2023/08/27 10:27:11;;;;;;;15.63;14.02;;;;;;;-148.88;100.00;-17125.47;4991507;28;20666;-72
2023/08/27 10:29:37;;;;;;;14.35;12.95;;;;;;;-148.88;100.00;-17125.47;4992981;28;20136;-72
2023/08/27 10:32:03;;;;;;;15.57;13.90;;;;;;;-148.88;100.00;-17125.47;4992896;28;20019;-72
2023/08/27 10:34:30;;;;;;;16.35;14.57;;;;;;;-148.88;100.00;-17125.47;4992692;28;20026;-72
2023/08/27 10:37:00;;;;;;;17.73;15.82;;;;;;;-148.88;100.00;-17125.47;4992648;28;20026;-72
2023/08/27 10:39:29;;;;;;;18.20;16.30;;;;;;;-148.88;100.00;-17125.47;4992600;28;20026;-72
2023/08/27 10:41:54;;;;;;;18.08;16.17;;;;;;;-148.88;100.00;-17125.47;4992663;28;20073;-73
2023/08/27 10:44:20;;;;;;;27.02;22.00;;;;;;;-148.88;100.00;-17125.47;4992566;28;20160;-73
2023/08/27 10:47:14;;;;;;;30.77;24.40;;;;;;;-148.88;100.00;-17125.47;4992568;28;20022;-73
2023/08/27 10:49:40;;;;;;;17.38;15.63;;;;;;;-148.88;100.00;-17125.47;4992622;28;20497;-72
2023/08/27 10:52:50;;;;;;;16.17;14.57;;;;;;;-148.88;100.00;-17125.47;4992582;28;20037;-73
2023/08/27 10:55:20;;;;;;;18.13;15.20;;;;;;;-148.88;100.00;-17125.47;4977661;28;20093;-73
2023/08/27 10:57:45;;;;;;;16.20;14.70;;;;;;;-148.88;100.00;-17125.47;4992830;28;20026;-72
2023/08/27 11:00:12;;;;;;;16.38;14.75;;;;;;;-148.88;100.00;-17125.47;4992794;28;20030;-72